sensor_id;sensor_type;location;lat;lon;timestamp;temperature;humidity
33007;DHT22;19361;51.598;7.650;2023-05-09T00:02:21;19.40;67.00
33007;DHT22;19361;51.598;7.650;2023-05-09T00:07:43;19.40;67.00
33007;DHT22;19361;51.598;7.650;2023-05-09T00:13:04;19.30;66.80
33007;DHT22;19361;51.598;7.650;2023-05-09T00:18:25;19.30;66.70
33007;DHT22;19361;51.598;7.650;2023-05-09T00:23:48;19.30;66.70
33007;DHT22;19361;51.598;7.650;2023-05-09T00:29:09;19.20;66.60
33007;DHT22;19361;51.598;7.650;2023-05-09T00:34:30;19.20;66.60
33007;DHT22;19361;51.598;7.650;2023-05-09T00:39:51;19.10;66.50
33007;DHT22;19361;51.598;7.650;2023-05-09T00:45:12;19.00;66.60
33007;DHT22;19361;51.598;7.650;2023-05-09T00:50:33;19.00;66.60
33007;DHT22;19361;51.598;7.650;2023-05-09T00:55:55;18.90;66.80
33007;DHT22;19361;51.598;7.650;2023-05-09T01:01:17;18.80;66.90
33007;DHT22;19361;51.598;7.650;2023-05-09T01:07:21;18.70;66.80
33007;DHT22;19361;51.598;7.650;2023-05-09T01:18:46;18.60;67.20
33007;DHT22;19361;51.598;7.650;2023-05-09T01:24:31;18.50;67.00
33007;DHT22;19361;51.598;7.650;2023-05-09T01:30:02;18.50;66.90
33007;DHT22;19361;51.598;7.650;2023-05-09T01:35:25;18.40;67.00
33007;DHT22;19361;51.598;7.650;2023-05-09T01:40:51;18.30;67.20
33007;DHT22;19361;51.598;7.650;2023-05-09T01:46:15;18.30;67.20
33007;DHT22;19361;51.598;7.650;2023-05-09T01:51:37;18.20;67.30
33007;DHT22;19361;51.598;7.650;2023-05-09T01:56:59;18.20;67.20
33007;DHT22;19361;51.598;7.650;2023-05-09T02:02:21;18.10;67.10
33007;DHT22;19361;51.598;7.650;2023-05-09T02:07:44;18.00;67.10
33007;DHT22;19361;51.598;7.650;2023-05-09T02:13:06;18.00;67.20
33007;DHT22;19361;51.598;7.650;2023-05-09T02:18:27;18.00;67.10
33007;DHT22;19361;51.598;7.650;2023-05-09T02:23:49;17.90;67.10
33007;DHT22;19361;51.598;7.650;2023-05-09T02:29:10;17.80;67.00
33007;DHT22;19361;51.598;7.650;2023-05-09T02:34:32;17.80;67.10
33007;DHT22;19361;51.598;7.650;2023-05-09T02:39:54;17.70;67.10
33007;DHT22;19361;51.598;7.650;2023-05-09T02:45:15;17.70;67.20
33007;DHT22;19361;51.598;7.650;2023-05-09T02:50:36;17.70;67.20
33007;DHT22;19361;51.598;7.650;2023-05-09T02:56:02;17.70;67.40
33007;DHT22;19361;51.598;7.650;2023-05-09T03:01:23;17.60;67.20
33007;DHT22;19361;51.598;7.650;2023-05-09T03:06:44;17.60;67.20
33007;DHT22;19361;51.598;7.650;2023-05-09T03:12:06;17.50;67.20
33007;DHT22;19361;51.598;7.650;2023-05-09T03:17:27;17.50;67.20
33007;DHT22;19361;51.598;7.650;2023-05-09T03:22:48;17.40;67.30
33007;DHT22;19361;51.598;7.650;2023-05-09T03:28:09;17.40;67.30
33007;DHT22;19361;51.598;7.650;2023-05-09T03:33:30;17.30;67.30
33007;DHT22;19361;51.598;7.650;2023-05-09T03:38:51;17.20;67.30
33007;DHT22;19361;51.598;7.650;2023-05-09T03:44:12;17.20;67.50
33007;DHT22;19361;51.598;7.650;2023-05-09T03:49:33;17.20;67.60
33007;DHT22;19361;51.598;7.650;2023-05-09T03:54:54;17.20;67.80
33007;DHT22;19361;51.598;7.650;2023-05-09T04:00:15;17.20;67.80
33007;DHT22;19361;51.598;7.650;2023-05-09T04:05:37;17.20;68.00
33007;DHT22;19361;51.598;7.650;2023-05-09T04:10:58;17.20;68.30
33007;DHT22;19361;51.598;7.650;2023-05-09T04:16:19;17.20;68.30
33007;DHT22;19361;51.598;7.650;2023-05-09T04:21:40;17.30;68.50
33007;DHT22;19361;51.598;7.650;2023-05-09T04:27:01;17.40;68.60
33007;DHT22;19361;51.598;7.650;2023-05-09T04:32:22;17.50;68.50
33007;DHT22;19361;51.598;7.650;2023-05-09T04:37:43;17.60;68.60
33007;DHT22;19361;51.598;7.650;2023-05-09T04:43:04;17.60;68.70
33007;DHT22;19361;51.598;7.650;2023-05-09T04:48:25;17.70;68.70
33007;DHT22;19361;51.598;7.650;2023-05-09T04:53:46;17.80;68.80
33007;DHT22;19361;51.598;7.650;2023-05-09T04:59:07;17.90;68.90
33007;DHT22;19361;51.598;7.650;2023-05-09T05:04:29;18.00;69.00
33007;DHT22;19361;51.598;7.650;2023-05-09T05:09:50;18.10;69.00
33007;DHT22;19361;51.598;7.650;2023-05-09T05:15:11;18.20;69.00
33007;DHT22;19361;51.598;7.650;2023-05-09T05:20:32;18.40;69.10
33007;DHT22;19361;51.598;7.650;2023-05-09T05:25:54;18.60;69.20
33007;DHT22;19361;51.598;7.650;2023-05-09T05:31:15;18.70;68.70
33007;DHT22;19361;51.598;7.650;2023-05-09T05:36:36;18.90;68.20
33007;DHT22;19361;51.598;7.650;2023-05-09T05:41:57;19.00;68.00
33007;DHT22;19361;51.598;7.650;2023-05-09T05:47:18;19.10;68.10
33007;DHT22;19361;51.598;7.650;2023-05-09T05:52:39;19.10;67.90
33007;DHT22;19361;51.598;7.650;2023-05-09T05:58:01;19.20;67.80
33007;DHT22;19361;51.598;7.650;2023-05-09T06:03:22;19.30;67.60
33007;DHT22;19361;51.598;7.650;2023-05-09T06:08:43;19.20;67.30
33007;DHT22;19361;51.598;7.650;2023-05-09T06:14:04;19.30;67.30
33007;DHT22;19361;51.598;7.650;2023-05-09T06:19:25;19.30;67.40
33007;DHT22;19361;51.598;7.650;2023-05-09T06:24:46;19.30;67.50
33007;DHT22;19361;51.598;7.650;2023-05-09T06:30:08;19.30;67.50
33007;DHT22;19361;51.598;7.650;2023-05-09T06:35:29;19.40;67.50
33007;DHT22;19361;51.598;7.650;2023-05-09T06:40:50;19.50;67.60
33007;DHT22;19361;51.598;7.650;2023-05-09T06:46:11;19.60;67.60
33007;DHT22;19361;51.598;7.650;2023-05-09T06:51:32;19.60;67.50
33007;DHT22;19361;51.598;7.650;2023-05-09T06:56:53;19.70;67.60
33007;DHT22;19361;51.598;7.650;2023-05-09T07:02:14;19.80;67.70
33007;DHT22;19361;51.598;7.650;2023-05-09T07:07:35;19.80;67.50
33007;DHT22;19361;51.598;7.650;2023-05-09T07:12:56;19.90;67.50
33007;DHT22;19361;51.598;7.650;2023-05-09T07:18:18;20.00;67.50
33007;DHT22;19361;51.598;7.650;2023-05-09T07:23:39;20.10;67.50
33007;DHT22;19361;51.598;7.650;2023-05-09T07:29:00;20.10;67.30
33007;DHT22;19361;51.598;7.650;2023-05-09T07:34:21;20.30;67.50
33007;DHT22;19361;51.598;7.650;2023-05-09T07:39:43;20.40;67.40
33007;DHT22;19361;51.598;7.650;2023-05-09T07:45:05;20.40;67.10
33007;DHT22;19361;51.598;7.650;2023-05-09T07:50:26;20.50;67.10
33007;DHT22;19361;51.598;7.650;2023-05-09T07:55:47;20.70;67.20
33007;DHT22;19361;51.598;7.650;2023-05-09T08:01:09;20.90;67.40
33007;DHT22;19361;51.598;7.650;2023-05-09T08:06:31;21.20;67.10
33007;DHT22;19361;51.598;7.650;2023-05-09T08:11:52;21.50;66.40
33007;DHT22;19361;51.598;7.650;2023-05-09T08:17:13;21.70;65.00
33007;DHT22;19361;51.598;7.650;2023-05-09T08:22:34;21.70;64.20
33007;DHT22;19361;51.598;7.650;2023-05-09T08:27:55;21.70;64.30
33007;DHT22;19361;51.598;7.650;2023-05-09T08:33:16;21.70;64.00
33007;DHT22;19361;51.598;7.650;2023-05-09T08:38:37;21.60;64.50
33007;DHT22;19361;51.598;7.650;2023-05-09T08:44:00;21.50;64.40
33007;DHT22;19361;51.598;7.650;2023-05-09T08:49:21;21.50;64.70
33007;DHT22;19361;51.598;7.650;2023-05-09T08:54:43;21.50;64.20
33007;DHT22;19361;51.598;7.650;2023-05-09T09:00:05;21.40;64.50
33007;DHT22;19361;51.598;7.650;2023-05-09T09:05:27;21.40;64.30
33007;DHT22;19361;51.598;7.650;2023-05-09T09:10:50;21.40;64.40
33007;DHT22;19361;51.598;7.650;2023-05-09T09:16:17;21.40;64.70
33007;DHT22;19361;51.598;7.650;2023-05-09T09:21:44;21.40;64.60
33007;DHT22;19361;51.598;7.650;2023-05-09T09:27:10;21.40;64.20
33007;DHT22;19361;51.598;7.650;2023-05-09T09:32:32;21.40;64.60
33007;DHT22;19361;51.598;7.650;2023-05-09T09:37:57;21.50;64.90
33007;DHT22;19361;51.598;7.650;2023-05-09T09:43:19;21.60;64.70
33007;DHT22;19361;51.598;7.650;2023-05-09T09:48:45;21.60;64.60
33007;DHT22;19361;51.598;7.650;2023-05-09T09:54:11;21.70;64.00
33007;DHT22;19361;51.598;7.650;2023-05-09T09:59:34;21.80;63.70
33007;DHT22;19361;51.598;7.650;2023-05-09T10:04:56;21.90;63.80
33007;DHT22;19361;51.598;7.650;2023-05-09T10:10:17;22.10;63.20
33007;DHT22;19361;51.598;7.650;2023-05-09T10:15:38;22.30;62.60
33007;DHT22;19361;51.598;7.650;2023-05-09T10:21:01;22.50;60.50
33007;DHT22;19361;51.598;7.650;2023-05-09T10:26:25;22.50;60.50
33007;DHT22;19361;51.598;7.650;2023-05-09T10:31:53;22.60;60.60
33007;DHT22;19361;51.598;7.650;2023-05-09T10:37:20;22.70;60.40
33007;DHT22;19361;51.598;7.650;2023-05-09T10:42:42;22.80;59.30
33007;DHT22;19361;51.598;7.650;2023-05-09T10:48:05;22.90;58.50
33007;DHT22;19361;51.598;7.650;2023-05-09T10:53:48;23.00;57.50
33007;DHT22;19361;51.598;7.650;2023-05-09T10:59:35;23.20;57.20
33007;DHT22;19361;51.598;7.650;2023-05-09T11:05:16;23.20;56.70
33007;DHT22;19361;51.598;7.650;2023-05-09T11:10:42;23.30;54.80
33007;DHT22;19361;51.598;7.650;2023-05-09T11:16:04;23.50;55.60
33007;DHT22;19361;51.598;7.650;2023-05-09T11:21:27;23.50;56.40
33007;DHT22;19361;51.598;7.650;2023-05-09T11:26:49;23.80;56.00
33007;DHT22;19361;51.598;7.650;2023-05-09T11:32:12;24.00;56.10
33007;DHT22;19361;51.598;7.650;2023-05-09T11:43:06;24.20;53.20
33007;DHT22;19361;51.598;7.650;2023-05-09T11:48:29;24.30;53.70
33007;DHT22;19361;51.598;7.650;2023-05-09T11:53:50;24.40;52.10
33007;DHT22;19361;51.598;7.650;2023-05-09T11:59:13;24.50;53.40
33007;DHT22;19361;51.598;7.650;2023-05-09T12:04:35;24.60;52.80
33007;DHT22;19361;51.598;7.650;2023-05-09T12:09:56;24.80;53.10
33007;DHT22;19361;51.598;7.650;2023-05-09T12:15:18;25.00;52.70
33007;DHT22;19361;51.598;7.650;2023-05-09T12:20:42;25.10;52.60
33007;DHT22;19361;51.598;7.650;2023-05-09T12:26:12;25.20;52.20
33007;DHT22;19361;51.598;7.650;2023-05-09T12:31:33;25.30;52.70
33007;DHT22;19361;51.598;7.650;2023-05-09T12:36:54;25.30;50.60
33007;DHT22;19361;51.598;7.650;2023-05-09T12:42:18;25.50;51.00
33007;DHT22;19361;51.598;7.650;2023-05-09T12:47:39;25.50;50.60
33007;DHT22;19361;51.598;7.650;2023-05-09T12:53:02;25.60;48.80
33007;DHT22;19361;51.598;7.650;2023-05-09T12:58:31;25.70;49.40
33007;DHT22;19361;51.598;7.650;2023-05-09T13:04:01;25.70;49.30
33007;DHT22;19361;51.598;7.650;2023-05-09T13:09:24;25.60;48.80
33007;DHT22;19361;51.598;7.650;2023-05-09T13:14:47;25.50;49.30
33007;DHT22;19361;51.598;7.650;2023-05-09T13:20:08;25.30;50.70
33007;DHT22;19361;51.598;7.650;2023-05-09T13:25:29;25.10;50.70
33007;DHT22;19361;51.598;7.650;2023-05-09T13:30:50;24.90;51.70
33007;DHT22;19361;51.598;7.650;2023-05-09T13:36:11;24.80;52.20
33007;DHT22;19361;51.598;7.650;2023-05-09T13:41:32;24.80;52.70
33007;DHT22;19361;51.598;7.650;2023-05-09T13:46:53;24.80;52.20
33007;DHT22;19361;51.598;7.650;2023-05-09T13:52:15;24.80;52.40
33007;DHT22;19361;51.598;7.650;2023-05-09T13:57:36;24.70;52.60
33007;DHT22;19361;51.598;7.650;2023-05-09T14:02:57;24.40;54.60
33007;DHT22;19361;51.598;7.650;2023-05-09T14:08:18;24.00;54.90
33007;DHT22;19361;51.598;7.650;2023-05-09T14:13:40;23.50;55.80
33007;DHT22;19361;51.598;7.650;2023-05-09T14:19:02;23.00;57.00
33007;DHT22;19361;51.598;7.650;2023-05-09T14:24:23;22.60;58.40
33007;DHT22;19361;51.598;7.650;2023-05-09T14:29:44;22.30;60.20
33007;DHT22;19361;51.598;7.650;2023-05-09T14:35:05;22.10;60.90
33007;DHT22;19361;51.598;7.650;2023-05-09T14:40:26;21.90;61.60
33007;DHT22;19361;51.598;7.650;2023-05-09T14:45:54;21.80;62.20
33007;DHT22;19361;51.598;7.650;2023-05-09T14:51:15;21.70;62.80
33007;DHT22;19361;51.598;7.650;2023-05-09T14:56:37;21.60;63.40
33007;DHT22;19361;51.598;7.650;2023-05-09T15:01:58;21.50;63.80
33007;DHT22;19361;51.598;7.650;2023-05-09T15:07:19;21.40;63.90
33007;DHT22;19361;51.598;7.650;2023-05-09T15:12:40;21.20;64.10
33007;DHT22;19361;51.598;7.650;2023-05-09T15:18:01;21.10;64.30
33007;DHT22;19361;51.598;7.650;2023-05-09T15:23:22;21.00;64.30
33007;DHT22;19361;51.598;7.650;2023-05-09T15:28:43;20.90;64.60
33007;DHT22;19361;51.598;7.650;2023-05-09T15:34:05;20.80;64.70
33007;DHT22;19361;51.598;7.650;2023-05-09T15:39:26;20.80;65.10
33007;DHT22;19361;51.598;7.650;2023-05-09T15:44:47;20.70;65.20
33007;DHT22;19361;51.598;7.650;2023-05-09T15:50:08;20.80;65.30
33007;DHT22;19361;51.598;7.650;2023-05-09T15:55:30;20.80;65.30
33007;DHT22;19361;51.598;7.650;2023-05-09T16:00:52;20.90;65.30
33007;DHT22;19361;51.598;7.650;2023-05-09T16:06:13;20.90;65.20
33007;DHT22;19361;51.598;7.650;2023-05-09T16:11:34;20.90;65.30
33007;DHT22;19361;51.598;7.650;2023-05-09T16:16:56;20.90;65.30
33007;DHT22;19361;51.598;7.650;2023-05-09T16:22:17;20.90;65.40
33007;DHT22;19361;51.598;7.650;2023-05-09T16:27:39;20.90;65.60
33007;DHT22;19361;51.598;7.650;2023-05-09T16:33:00;20.90;65.50
33007;DHT22;19361;51.598;7.650;2023-05-09T16:38:21;20.80;65.60
33007;DHT22;19361;51.598;7.650;2023-05-09T16:43:42;20.80;65.90
33007;DHT22;19361;51.598;7.650;2023-05-09T16:49:03;20.80;66.00
33007;DHT22;19361;51.598;7.650;2023-05-09T16:54:24;20.80;66.60
33007;DHT22;19361;51.598;7.650;2023-05-09T16:59:45;20.70;66.60
33007;DHT22;19361;51.598;7.650;2023-05-09T17:05:07;20.70;66.70
33007;DHT22;19361;51.598;7.650;2023-05-09T17:10:28;20.60;66.60
33007;DHT22;19361;51.598;7.650;2023-05-09T17:15:49;20.60;66.60
33007;DHT22;19361;51.598;7.650;2023-05-09T17:21:15;20.50;66.70
33007;DHT22;19361;51.598;7.650;2023-05-09T17:26:36;20.40;67.00
33007;DHT22;19361;51.598;7.650;2023-05-09T17:31:58;20.30;66.60
33007;DHT22;19361;51.598;7.650;2023-05-09T17:37:22;20.10;66.90
33007;DHT22;19361;51.598;7.650;2023-05-09T17:42:43;20.10;67.10
33007;DHT22;19361;51.598;7.650;2023-05-09T17:48:04;20.00;67.30
33007;DHT22;19361;51.598;7.650;2023-05-09T17:53:26;20.00;67.60
33007;DHT22;19361;51.598;7.650;2023-05-09T17:58:48;19.90;67.60
33007;DHT22;19361;51.598;7.650;2023-05-09T18:04:12;19.90;67.60
33007;DHT22;19361;51.598;7.650;2023-05-09T18:09:33;19.90;67.70
33007;DHT22;19361;51.598;7.650;2023-05-09T18:14:55;19.90;68.00
33007;DHT22;19361;51.598;7.650;2023-05-09T18:20:16;19.90;67.80
33007;DHT22;19361;51.598;7.650;2023-05-09T18:25:37;19.90;67.90
33007;DHT22;19361;51.598;7.650;2023-05-09T18:30:59;19.80;68.00
33007;DHT22;19361;51.598;7.650;2023-05-09T18:36:20;19.80;68.10
33007;DHT22;19361;51.598;7.650;2023-05-09T18:41:41;19.80;68.20
33007;DHT22;19361;51.598;7.650;2023-05-09T18:47:03;19.80;68.30
33007;DHT22;19361;51.598;7.650;2023-05-09T18:52:24;19.80;68.30
33007;DHT22;19361;51.598;7.650;2023-05-09T18:57:45;19.80;68.50
33007;DHT22;19361;51.598;7.650;2023-05-09T19:03:06;19.80;68.60
33007;DHT22;19361;51.598;7.650;2023-05-09T19:08:27;19.70;68.80
33007;DHT22;19361;51.598;7.650;2023-05-09T19:13:48;19.60;69.00
33007;DHT22;19361;51.598;7.650;2023-05-09T19:19:10;19.60;69.30
33007;DHT22;19361;51.598;7.650;2023-05-09T19:24:31;19.60;69.40
33007;DHT22;19361;51.598;7.650;2023-05-09T19:29:52;19.50;69.40
33007;DHT22;19361;51.598;7.650;2023-05-09T19:35:13;19.50;69.70
33007;DHT22;19361;51.598;7.650;2023-05-09T19:40:35;19.40;69.90
33007;DHT22;19361;51.598;7.650;2023-05-09T19:45:56;19.40;70.10
33007;DHT22;19361;51.598;7.650;2023-05-09T19:51:18;19.40;70.30
33007;DHT22;19361;51.598;7.650;2023-05-09T19:56:39;19.30;70.60
33007;DHT22;19361;51.598;7.650;2023-05-09T20:02:00;19.20;71.00
33007;DHT22;19361;51.598;7.650;2023-05-09T20:07:21;19.20;70.80
33007;DHT22;19361;51.598;7.650;2023-05-09T20:12:42;19.20;71.50
33007;DHT22;19361;51.598;7.650;2023-05-09T20:18:03;19.10;71.10
33007;DHT22;19361;51.598;7.650;2023-05-09T20:23:27;19.10;71.50
33007;DHT22;19361;51.598;7.650;2023-05-09T20:28:48;19.00;71.20
33007;DHT22;19361;51.598;7.650;2023-05-09T20:34:09;19.00;71.60
33007;DHT22;19361;51.598;7.650;2023-05-09T20:39:30;19.00;71.50
33007;DHT22;19361;51.598;7.650;2023-05-09T20:44:51;18.90;71.60
33007;DHT22;19361;51.598;7.650;2023-05-09T20:50:14;18.90;71.40
33007;DHT22;19361;51.598;7.650;2023-05-09T20:55:36;18.90;71.40
33007;DHT22;19361;51.598;7.650;2023-05-09T21:00:57;18.90;71.40
33007;DHT22;19361;51.598;7.650;2023-05-09T21:06:18;18.90;71.30
33007;DHT22;19361;51.598;7.650;2023-05-09T21:11:39;19.00;71.10
33007;DHT22;19361;51.598;7.650;2023-05-09T21:17:01;18.90;71.00
33007;DHT22;19361;51.598;7.650;2023-05-09T21:22:22;18.90;70.90
33007;DHT22;19361;51.598;7.650;2023-05-09T21:27:43;18.90;70.80
33007;DHT22;19361;51.598;7.650;2023-05-09T21:33:04;18.90;70.50
33007;DHT22;19361;51.598;7.650;2023-05-09T21:38:25;18.90;70.70
33007;DHT22;19361;51.598;7.650;2023-05-09T21:43:46;18.90;70.80
33007;DHT22;19361;51.598;7.650;2023-05-09T21:49:07;18.90;70.80
33007;DHT22;19361;51.598;7.650;2023-05-09T21:54:28;18.80;70.60
33007;DHT22;19361;51.598;7.650;2023-05-09T21:59:49;18.80;70.60
33007;DHT22;19361;51.598;7.650;2023-05-09T22:05:10;18.80;70.60
33007;DHT22;19361;51.598;7.650;2023-05-09T22:10:32;18.70;70.80
33007;DHT22;19361;51.598;7.650;2023-05-09T22:15:54;18.70;70.80
33007;DHT22;19361;51.598;7.650;2023-05-09T22:21:15;18.70;71.00
33007;DHT22;19361;51.598;7.650;2023-05-09T22:26:36;18.70;70.90
33007;DHT22;19361;51.598;7.650;2023-05-09T22:31:57;18.70;71.00
33007;DHT22;19361;51.598;7.650;2023-05-09T22:37:18;18.70;71.00
33007;DHT22;19361;51.598;7.650;2023-05-09T22:42:39;18.70;71.00
33007;DHT22;19361;51.598;7.650;2023-05-09T22:48:00;18.60;71.00
33007;DHT22;19361;51.598;7.650;2023-05-09T22:53:21;18.60;70.80
33007;DHT22;19361;51.598;7.650;2023-05-09T22:58:42;18.60;71.00
33007;DHT22;19361;51.598;7.650;2023-05-09T23:04:03;18.50;70.40
33007;DHT22;19361;51.598;7.650;2023-05-09T23:09:25;18.50;70.20
33007;DHT22;19361;51.598;7.650;2023-05-09T23:14:46;18.40;70.40
33007;DHT22;19361;51.598;7.650;2023-05-09T23:20:07;18.30;70.20
33007;DHT22;19361;51.598;7.650;2023-05-09T23:25:28;18.20;70.00
33007;DHT22;19361;51.598;7.650;2023-05-09T23:30:53;18.20;70.30
33007;DHT22;19361;51.598;7.650;2023-05-09T23:36:14;18.20;70.50
33007;DHT22;19361;51.598;7.650;2023-05-09T23:41:35;18.10;70.40
33007;DHT22;19361;51.598;7.650;2023-05-09T23:46:56;18.10;70.40
33007;DHT22;19361;51.598;7.650;2023-05-09T23:52:17;18.10;70.50
33007;DHT22;19361;51.598;7.650;2023-05-09T23:57:38;18.00;70.40
